Time;durP1;ratioP1;P1;durP2;ratioP2;P2;SDS_P1;SDS_P2;PMS_P1;PMS_P2;Temp;Humidity;BMP_temperature;BMP_pressure;BME280_temperature;BME280_humidity;BME280_pressure;Samples;Min_cycle;Max_cycle;Signal;HPM_P1;HPM_P2
2022/06/15 00:02:21;;;;;;;1999.90;999.90;;;11.70;99.90;;;;;;5047142;28;20463;-71
2022/06/15 00:04:49;;;;;;;1999.90;999.90;;;11.60;99.90;;;;;;5048472;28;21086;-71
2022/06/15 00:07:15;;;;;;;1999.90;999.90;;;11.60;99.90;;;;;;5047827;28;20459;-71
2022/06/15 00:09:42;;;;;;;1999.90;999.90;;;11.60;99.90;;;;;;5042822;28;20512;-70
2022/06/15 00:12:09;;;;;;;1999.90;999.90;;;11.60;99.90;;;;;;5045867;28;20475;-71
2022/06/15 00:14:37;;;;;;;1999.90;999.90;;;11.50;99.90;;;;;;5047027;28;21012;-71
2022/06/15 00:17:04;;;;;;;1999.90;999.90;;;11.60;99.90;;;;;;5047147;28;20469;-71
2022/06/15 00:19:31;;;;;;;1999.90;999.90;;;11.60;99.90;;;;;;5046774;28;20524;-70
2022/06/15 00:21:59;;;;;;;1999.90;999.90;;;11.70;99.90;;;;;;5047850;28;20466;-71
2022/06/15 00:24:25;;;;;;;1999.90;999.90;;;11.70;99.90;;;;;;5047488;28;20458;-71
2022/06/15 00:26:52;;;;;;;1999.90;999.90;;;11.80;99.90;;;;;;5048644;28;20520;-71
2022/06/15 00:29:19;;;;;;;1999.90;999.90;;;11.70;99.90;;;;;;5046330;28;20493;-71
2022/06/15 00:31:45;;;;;;;1999.90;999.90;;;11.70;99.90;;;;;;5048200;28;20466;-71
2022/06/15 00:34:12;;;;;;;1999.90;999.90;;;11.50;99.90;;;;;;5047336;28;20540;-70
2022/06/15 00:36:39;;;;;;;1999.90;999.90;;;11.60;99.90;;;;;;5049273;28;20464;-71
2022/06/15 00:39:07;;;;;;;1999.90;999.90;;;11.60;99.90;;;;;;5045102;28;20509;-70
2022/06/15 00:41:36;;;;;;;1999.90;999.90;;;11.60;99.90;;;;;;5045339;28;20461;-71
2022/06/15 00:44:24;;;;;;;1999.90;999.90;;;11.70;99.90;;;;;;5047994;28;21051;-70
2022/06/15 00:46:55;;;;;;;1999.90;999.90;;;11.70;99.90;;;;;;5046301;28;20461;-70
2022/06/15 00:49:28;;;;;;;1999.90;999.90;;;11.80;99.90;;;;;;5049825;28;20486;-71
2022/06/15 00:51:58;;;;;;;1999.90;999.90;;;11.90;99.90;;;;;;5051146;28;20883;-71
2022/06/15 00:54:27;;;;;;;1999.90;999.90;;;12.00;99.90;;;;;;5052220;28;20485;-70
2022/06/15 00:56:55;;;;;;;1999.90;999.90;;;12.00;99.90;;;;;;5054440;28;20496;-71
2022/06/15 00:59:26;;;;;;;1999.90;999.90;;;12.10;99.90;;;;;;5050754;28;20470;-71
2022/06/15 01:01:52;;;;;;;1999.90;999.90;;;12.00;99.90;;;;;;5052311;28;20953;-71
2022/06/15 01:04:20;;;;;;;1999.90;999.90;;;12.00;99.90;;;;;;5050817;28;20459;-71
2022/06/15 01:06:52;;;;;;;1999.90;999.90;;;11.90;99.90;;;;;;5050257;28;20511;-71
2022/06/15 01:09:21;;;;;;;1999.90;999.90;;;11.90;99.90;;;;;;5052015;28;20486;-71
2022/06/15 01:32:08;;;;;;;1999.90;999.90;;;11.80;99.90;;;;;;5046441;28;20424;-69
2022/06/15 01:34:43;;;;;;;1999.90;999.90;;;11.80;99.90;;;;;;5050390;28;20486;-71
2022/06/15 01:37:17;;;;;;;1999.90;999.90;;;11.90;99.90;;;;;;5049676;28;20500;-71
2022/06/15 01:39:47;;;;;;;1999.90;999.90;;;12.00;99.90;;;;;;5051128;28;20540;-71
2022/06/15 01:42:21;;;;;;;1999.90;999.90;;;12.10;99.90;;;;;;5048592;28;20535;-71
2022/06/15 01:44:52;;;;;;;1999.90;999.90;;;12.10;99.90;;;;;;5046305;28;20454;-71
2022/06/15 01:47:24;;;;;;;1999.90;999.90;;;12.10;99.90;;;;;;5048764;28;20806;-70
2022/06/15 01:49:57;;;;;;;1999.90;999.90;;;12.10;99.90;;;;;;5049867;28;20494;-71
2022/06/15 01:52:27;;;;;;;1999.90;999.90;;;12.00;99.90;;;;;;5049241;28;20462;-71
2022/06/15 01:55:01;;;;;;;1999.90;999.90;;;11.90;99.90;;;;;;5049953;28;20474;-70
2022/06/15 01:57:30;;;;;;;1999.90;999.90;;;11.90;99.90;;;;;;5049860;28;20463;-71
2022/06/15 02:33:46;;;;;;;1999.90;999.90;;;11.90;99.90;;;;;;5047363;28;21031;-71
2022/06/15 02:36:13;;;;;;;1999.90;999.90;;;11.70;99.90;;;;;;5049786;28;20527;-71
2022/06/15 02:38:42;;;;;;;1999.90;999.90;;;11.50;99.90;;;;;;5050267;28;20485;-71
2022/06/15 02:41:10;;;;;;;1999.90;999.90;;;11.40;99.90;;;;;;5050422;28;20466;-71
2022/06/15 02:43:39;;;;;;;1999.90;999.90;;;11.30;99.90;;;;;;5050649;28;20469;-71
2022/06/15 02:46:09;;;;;;;1999.90;999.90;;;11.20;99.90;;;;;;5049262;28;20458;-70
2022/06/15 02:48:37;;;;;;;1999.90;999.90;;;11.20;99.90;;;;;;5048511;28;20500;-71
2022/06/15 02:51:11;;;;;;;1999.90;999.90;;;11.20;99.90;;;;;;5048518;28;20519;-70
2022/06/15 02:53:39;;;;;;;1999.90;999.90;;;11.10;99.90;;;;;;5048513;28;20470;-71
2022/06/15 02:56:08;;;;;;;1999.90;999.90;;;11.00;99.90;;;;;;5046596;28;20557;-70
2022/06/15 02:58:38;;;;;;;1999.90;999.90;;;11.00;99.90;;;;;;5049258;28;20561;-71
2022/06/15 03:01:05;;;;;;;1999.90;999.90;;;11.00;99.90;;;;;;5049785;28;20466;-70
2022/06/15 03:03:33;;;;;;;1999.90;999.90;;;11.00;99.90;;;;;;5049301;28;20461;-69
2022/06/15 03:06:00;;;;;;;1999.90;999.90;;;11.00;99.90;;;;;;5048822;28;20888;-71
2022/06/15 03:08:28;;;;;;;1999.90;999.90;;;11.10;99.90;;;;;;5048756;28;21485;-70
2022/06/15 03:10:55;;;;;;;1999.90;999.90;;;11.20;99.90;;;;;;5045353;28;21012;-71
2022/06/15 03:13:21;;;;;;;1999.90;999.90;;;11.40;99.90;;;;;;5048654;28;20482;-71
2022/06/15 03:15:48;;;;;;;1999.90;999.90;;;11.40;99.90;;;;;;5049400;28;20470;-71
2022/06/15 03:18:15;;;;;;;1999.90;999.90;;;11.40;99.90;;;;;;5049598;28;20463;-71
2022/06/15 03:20:42;;;;;;;1999.90;999.90;;;11.40;99.90;;;;;;5050452;28;20465;-71
2022/06/15 03:23:09;;;;;;;1999.90;999.90;;;11.40;99.90;;;;;;5049930;28;20458;-70
2022/06/15 03:25:38;;;;;;;1999.90;999.90;;;11.30;99.90;;;;;;5049181;28;20490;-71
2022/06/15 03:28:05;;;;;;;1999.90;999.90;;;11.20;99.90;;;;;;5048008;28;20580;-70
2022/06/15 03:30:32;;;;;;;1999.90;999.90;;;11.30;99.90;;;;;;5048332;28;20487;-71
2022/06/15 03:32:58;;;;;;;1999.90;999.90;;;11.30;99.90;;;;;;5049330;28;20810;-71
2022/06/15 03:35:34;;;;;;;1999.90;999.90;;;11.30;99.90;;;;;;5048232;28;21182;-71
2022/06/15 03:38:01;;;;;;;1999.90;999.90;;;11.40;99.90;;;;;;5045171;28;20453;-71
2022/06/15 03:40:27;;;;;;;1999.90;999.90;;;11.50;99.90;;;;;;5050156;28;20482;-71
2022/06/15 03:42:56;;;;;;;1999.90;999.90;;;11.60;99.90;;;;;;5046919;28;20499;-70
2022/06/15 03:45:23;;;;;;;1999.90;999.90;;;11.60;99.90;;;;;;5046966;28;20497;-70
2022/06/15 03:47:49;;;;;;;1999.90;999.90;;;11.60;99.90;;;;;;5047761;28;20470;-71
2022/06/15 03:50:16;;;;;;;1999.90;999.90;;;11.50;99.90;;;;;;5048659;28;20504;-71
2022/06/15 03:52:43;;;;;;;1999.90;999.90;;;11.50;99.90;;;;;;5048259;28;20458;-71
2022/06/15 03:55:10;;;;;;;1999.90;999.90;;;11.50;99.90;;;;;;5048838;28;20489;-70
2022/06/15 03:57:36;;;;;;;1999.90;999.90;;;11.40;99.90;;;;;;5048008;28;20524;-71
2022/06/15 04:00:06;;;;;;;1999.90;999.90;;;11.40;99.90;;;;;;5048779;28;20536;-71
2022/06/15 04:02:33;;;;;;;1999.90;999.90;;;11.30;99.90;;;;;;5046680;28;20527;-71
2022/06/15 04:04:59;;;;;;;1999.90;999.90;;;11.40;99.90;;;;;;5047560;28;20524;-71
2022/06/15 04:10:11;;;;;;;1999.90;999.90;;;11.50;99.90;;;;;;5045505;28;20523;-70
2022/06/15 04:12:38;;;;;;;1999.90;999.90;;;11.60;99.90;;;;;;5047013;28;21008;-70
2022/06/15 04:15:07;;;;;;;1999.90;999.90;;;11.80;99.90;;;;;;5045422;28;20486;-71
2022/06/15 04:17:34;;;;;;;1999.90;999.90;;;11.90;99.90;;;;;;5048003;28;20473;-71
2022/06/15 04:22:45;;;;;;;1999.90;999.90;;;12.10;99.90;;;;;;5052390;28;20499;-72
2022/06/15 04:25:12;;;;;;;1999.90;999.90;;;12.20;99.90;;;;;;5051985;28;20466;-67
2022/06/15 04:27:39;;;;;;;1999.90;999.90;;;12.20;99.90;;;;;;5050409;28;20881;-71
2022/06/15 04:30:08;;;;;;;1999.90;999.90;;;12.30;99.90;;;;;;5052136;28;20998;-71
2022/06/15 04:32:34;;;;;;;1999.90;999.90;;;12.60;99.90;;;;;;5050612;28;20974;-71
2022/06/15 04:35:01;;;;;;;1999.90;999.90;;;13.20;99.90;;;;;;5051953;28;20477;-72
2022/06/15 04:37:28;;;;;;;1999.90;999.90;;;13.60;99.90;;;;;;5049184;28;20463;-72
2022/06/15 04:39:54;;;;;;;1999.90;999.90;;;14.20;99.90;;;;;;5051191;28;21510;-71
2022/06/15 04:42:21;;;;;;;1999.90;999.90;;;14.60;99.90;;;;;;5050685;28;20549;-72
2022/06/15 04:44:48;;;;;;;1999.90;999.90;;;14.90;99.90;;;;;;5051335;28;20450;-72
2022/06/15 04:47:16;;;;;;;1999.90;999.90;;;15.00;99.90;;;;;;5048274;28;20458;-69
2022/06/15 04:49:42;;;;;;;1999.90;999.90;;;15.20;99.90;;;;;;5050200;28;20656;-72
2022/06/15 04:52:09;;;;;;;1999.90;999.90;;;15.40;99.90;;;;;;5046974;28;20529;-71
2022/06/15 04:54:35;;;;;;;1999.90;999.90;;;15.60;99.90;;;;;;5054199;28;20531;-71
2022/06/15 04:57:02;;;;;;;1999.90;999.90;;;15.30;99.90;;;;;;5051212;28;20581;-71
2022/06/15 04:59:29;;;;;;;1999.90;999.90;;;15.10;99.90;;;;;;5048717;28;20481;-72
2022/06/15 05:01:58;;;;;;;1999.90;999.90;;;15.10;99.90;;;;;;5049531;28;20916;-69
2022/06/15 05:04:26;;;;;;;1999.90;999.90;;;14.90;99.90;;;;;;5049872;28;20461;-72
2022/06/15 05:06:53;;;;;;;1999.90;999.90;;;15.80;99.90;;;;;;5049327;28;20553;-73
2022/06/15 05:09:20;;;;;;;1999.90;999.90;;;15.40;99.90;;;;;;5048403;28;21009;-72
2022/06/15 05:11:47;;;;;;;1999.90;999.90;;;15.70;99.90;;;;;;5051467;28;20960;-72
2022/06/15 05:14:14;;;;;;;1999.90;999.90;;;16.20;99.90;;;;;;5050341;28;20474;-69
2022/06/15 05:16:41;;;;;;;1999.90;999.90;;;16.30;99.90;;;;;;5048064;28;20458;-72
2022/06/15 05:19:07;;;;;;;1999.90;999.90;;;16.70;99.90;;;;;;5048561;28;20486;-71
2022/06/15 05:21:40;;;;;;;1999.90;999.90;;;16.40;99.90;;;;;;5050794;28;20524;-72
2022/06/15 05:24:07;;;;;;;1999.90;999.90;;;16.80;99.90;;;;;;5049282;28;20455;-72
2022/06/15 05:26:34;;;;;;;1999.90;999.90;;;16.90;99.90;;;;;;5048724;28;20470;-72
2022/06/15 05:29:01;;;;;;;1999.90;999.90;;;17.20;99.90;;;;;;5047876;28;20543;-70
2022/06/15 05:31:27;;;;;;;1999.90;999.90;;;17.60;99.90;;;;;;5050208;28;20503;-72
2022/06/15 05:33:56;;;;;;;1999.90;999.90;;;17.60;99.90;;;;;;5050872;28;20501;-71
2022/06/15 05:36:25;;;;;;;1999.90;999.90;;;17.10;99.90;;;;;;5050512;28;20462;-72
2022/06/15 05:38:53;;;;;;;1999.90;999.90;;;16.90;99.90;;;;;;5047411;28;20555;-72
2022/06/15 05:41:20;;;;;;;1999.90;999.90;;;17.20;99.90;;;;;;5050759;28;20474;-71
2022/06/15 05:43:47;;;;;;;1999.90;999.90;;;17.50;99.90;;;;;;5051579;28;20517;-71
2022/06/15 05:46:16;;;;;;;1999.90;999.90;;;17.80;99.90;;;;;;5050098;28;20914;-71
2022/06/15 05:48:43;;;;;;;1999.90;999.90;;;18.00;99.90;;;;;;5051253;28;20506;-72
2022/06/15 05:51:09;;;;;;;1999.90;999.90;;;17.70;99.90;;;;;;5052121;28;20458;-71
2022/06/15 05:53:36;;;;;;;1999.90;999.90;;;17.90;99.90;;;;;;5048867;28;20556;-72
2022/06/15 05:56:04;;;;;;;1999.90;999.90;;;18.00;99.90;;;;;;5049158;28;21079;-72
2022/06/15 05:58:31;;;;;;;1999.90;999.90;;;18.00;99.90;;;;;;5049434;28;20543;-72
2022/06/15 06:00:58;;;;;;;1999.90;999.90;;;17.60;99.90;;;;;;5048286;28;21096;-73
2022/06/15 06:03:25;;;;;;;1999.90;999.90;;;17.90;99.90;;;;;;5050317;28;20474;-71
2022/06/15 06:05:51;;;;;;;1999.90;999.90;;;18.20;99.90;;;;;;5047610;28;20462;-72
2022/06/15 06:08:18;;;;;;;1999.90;999.90;;;18.40;99.90;;;;;;5045491;28;20459;-72
2022/06/15 06:10:44;;;;;;;1999.90;999.90;;;18.90;99.90;;;;;;5047608;28;20462;-72
2022/06/15 06:13:12;;;;;;;1999.90;999.90;;;19.30;99.90;;;;;;5053569;28;20938;-69
2022/06/15 06:15:39;;;;;;;1999.90;999.90;;;19.40;99.90;;;;;;5052497;28;20531;-69
2022/06/15 06:18:06;;;;;;;1999.90;999.90;;;19.80;99.90;;;;;;5044169;28;20809;-70
2022/06/15 06:20:33;;;;;;;1999.90;999.90;;;19.40;99.90;;;;;;5053244;28;21025;-70
2022/06/15 06:22:59;;;;;;;1999.90;999.90;;;19.50;99.90;;;;;;5053246;28;20454;-70
2022/06/15 06:25:26;;;;;;;1999.90;999.90;;;19.60;99.90;;;;;;5053165;28;20935;-70
2022/06/15 06:27:52;;;;;;;1999.90;999.90;;;19.70;99.90;;;;;;5043149;28;21015;-70
2022/06/15 06:30:21;;;;;;;1999.90;999.90;;;19.80;99.90;;;;;;5052856;28;20864;-70
2022/06/15 06:32:48;;;;;;;1999.90;999.90;;;20.30;99.90;;;;;;5053107;28;20446;-70
2022/06/15 06:35:15;;;;;;;1999.90;999.90;;;20.70;99.10;;;;;;5053208;28;20474;-71
2022/06/15 06:37:42;;;;;;;1999.90;999.90;;;20.80;98.00;;;;;;5046538;28;20492;-70
2022/06/15 06:40:14;;;;;;;1999.90;999.90;;;20.60;97.80;;;;;;5048881;28;20500;-70
2022/06/15 06:42:41;;;;;;;1999.90;999.90;;;20.40;98.50;;;;;;5053303;28;20491;-71
2022/06/15 06:45:11;;;;;;;1999.90;999.90;;;20.20;98.80;;;;;;5052575;28;20954;-70
2022/06/15 06:47:39;;;;;;;1999.90;999.90;;;20.60;98.80;;;;;;5042528;28;20473;-70
2022/06/15 06:50:06;;;;;;;1999.90;999.90;;;20.50;98.40;;;;;;5053538;28;20906;-70
2022/06/15 06:52:33;;;;;;;1999.90;999.90;;;20.60;98.70;;;;;;5052725;28;20870;-70
2022/06/15 06:54:59;;;;;;;1999.90;999.90;;;20.60;98.30;;;;;;5052522;28;20478;-70
2022/06/15 06:57:26;;;;;;;1999.90;999.90;;;21.10;97.90;;;;;;5043419;28;20517;-70
2022/06/15 06:59:53;;;;;;;1999.90;999.90;;;21.40;97.80;;;;;;5052401;28;20459;-69
2022/06/15 07:02:19;;;;;;;1999.90;999.90;;;21.60;97.40;;;;;;5052224;28;20942;-70
2022/06/15 07:04:47;;;;;;;1999.90;999.90;;;21.60;96.80;;;;;;5052569;28;20450;-71
2022/06/15 07:07:14;;;;;;;1999.90;999.90;;;21.70;97.20;;;;;;5047488;28;20950;-70
2022/06/15 07:09:41;;;;;;;1999.90;999.90;;;21.70;96.90;;;;;;5052312;28;20996;-70
2022/06/15 07:12:08;;;;;;;1999.90;999.90;;;21.80;96.50;;;;;;5052051;28;20473;-70
2022/06/15 07:14:35;;;;;;;1999.90;999.90;;;21.50;96.40;;;;;;5052492;28;20508;-70
2022/06/15 07:17:01;;;;;;;1999.90;999.90;;;21.80;96.10;;;;;;5049777;28;20528;-71
2022/06/15 07:19:28;;;;;;;1999.90;999.90;;;21.90;95.70;;;;;;5038548;28;20482;-69
2022/06/15 07:21:56;;;;;;;1999.90;999.90;;;21.90;95.70;;;;;;5052085;28;20442;-70
2022/06/15 07:24:23;;;;;;;1999.90;999.90;;;21.80;96.00;;;;;;5052289;28;20508;-70
2022/06/15 07:26:49;;;;;;;1999.90;999.90;;;22.00;95.60;;;;;;5045814;28;20883;-70
2022/06/15 07:29:19;;;;;;;1999.90;999.90;;;22.10;95.50;;;;;;5049139;28;20536;-70
2022/06/15 07:31:48;;;;;;;1999.90;999.90;;;22.10;95.20;;;;;;5052198;28;20942;-70
2022/06/15 07:34:15;;;;;;;1999.90;999.90;;;22.70;95.10;;;;;;5052523;28;20446;-70
2022/06/15 07:36:46;;;;;;;1999.90;999.90;;;22.70;94.40;;;;;;5047020;28;20486;-70
2022/06/15 07:39:16;;;;;;;1999.90;999.90;;;22.70;94.30;;;;;;5048812;28;20470;-70
2022/06/15 07:41:43;;;;;;;1999.90;999.90;;;22.50;94.60;;;;;;5052548;28;20450;-70
2022/06/15 07:44:10;;;;;;;1999.90;999.90;;;22.60;94.00;;;;;;5052325;28;20476;-71
2022/06/15 07:46:37;;;;;;;1999.90;999.90;;;22.70;93.70;;;;;;5047659;28;20513;-70
2022/06/15 07:51:54;;;;;;;1999.90;999.90;;;23.00;93.10;;;;;;5052188;28;20969;-70
2022/06/15 07:54:23;;;;;;;1999.90;999.90;;;23.30;93.80;;;;;;5052359;28;20453;-73
2022/06/15 07:56:51;;;;;;;1999.90;999.90;;;23.20;92.80;;;;;;5044928;28;20487;-71
2022/06/15 07:59:18;;;;;;;1999.90;999.90;;;23.00;92.90;;;;;;5049525;28;20459;-71
2022/06/15 08:01:45;;;;;;;1999.90;999.90;;;23.40;93.30;;;;;;5052233;28;20450;-71
2022/06/15 08:04:13;;;;;;;1999.90;999.90;;;23.60;92.80;;;;;;5052629;28;20454;-70
2022/06/15 08:06:42;;;;;;;1999.90;999.90;;;23.80;92.50;;;;;;5051124;28;20458;-71
2022/06/15 08:09:09;;;;;;;1999.90;999.90;;;24.00;91.80;;;;;;5043707;28;20476;-70
2022/06/15 08:11:37;;;;;;;1999.90;999.90;;;23.70;91.60;;;;;;5051889;28;20534;-71
2022/06/15 08:14:05;;;;;;;1999.90;999.90;;;23.40;91.80;;;;;;5051582;28;20946;-70
2022/06/15 08:16:32;;;;;;;1999.90;999.90;;;23.40;92.20;;;;;;5050162;28;21755;-72
2022/06/15 08:19:02;;;;;;;1999.90;999.90;;;23.50;92.60;;;;;;5043069;28;20478;-73
2022/06/15 08:21:33;;;;;;;1999.90;999.90;;;23.50;91.70;;;;;;5051559;28;20442;-73
2022/06/15 08:24:01;;;;;;;1999.90;999.90;;;23.70;92.30;;;;;;5051258;28;20450;-73
2022/06/15 08:26:33;;;;;;;1999.90;999.90;;;24.00;91.70;;;;;;5050517;28;20894;-73
2022/06/15 08:29:05;;;;;;;1999.90;999.90;;;24.00;91.60;;;;;;5042835;28;20893;-72
2022/06/15 08:31:32;;;;;;;1999.90;999.90;;;23.70;91.40;;;;;;5051725;28;20496;-70
2022/06/15 08:33:58;;;;;;;1999.90;999.90;;;23.50;91.80;;;;;;5051746;28;20446;-71
2022/06/15 08:36:25;;;;;;;1999.90;999.90;;;23.50;92.00;;;;;;5050219;28;20940;-71
2022/06/15 08:38:52;;;;;;;1999.90;999.90;;;23.60;91.80;;;;;;5042879;28;20565;-71
2022/06/15 08:41:25;;;;;;;1999.90;999.90;;;23.60;92.00;;;;;;5051686;28;20946;-70
2022/06/15 08:44:01;;;;;;;1999.90;999.90;;;23.70;91.80;;;;;;5052407;28;20431;-70
2022/06/15 08:46:37;;;;;;;1999.90;999.90;;;24.10;91.60;;;;;;5050260;28;20468;-70
2022/06/15 08:49:16;;;;;;;1999.90;999.90;;;24.00;91.30;;;;;;5042941;28;20482;-70
2022/06/15 08:51:45;;;;;;;1999.90;999.90;;;24.10;91.20;;;;;;5032082;28;20449;-71
2022/06/15 08:54:22;;;;;;;1999.90;999.90;;;24.10;91.40;;;;;;5031683;28;20451;-73
2022/06/15 08:56:53;;;;;;;1999.90;999.90;;;24.10;90.40;;;;;;5036095;28;20531;-70
2022/06/15 08:59:30;;;;;;;1999.90;999.90;;;24.10;90.70;;;;;;5043115;28;20510;-70
2022/06/15 09:02:07;;;;;;;1999.90;999.90;;;24.30;90.50;;;;;;5051683;28;20507;-71
2022/06/15 09:04:41;;;;;;;1999.90;999.90;;;24.10;90.50;;;;;;5053436;28;20450;-71
2022/06/15 09:07:27;;;;;;;1999.90;999.90;;;24.20;90.80;;;;;;5049873;28;21030;-70
2022/06/15 09:10:28;;;;;;;1999.90;999.90;;;24.10;90.20;;;;;;5050825;28;20546;-69
2022/06/15 09:13:09;;;;;;;1999.90;999.90;;;24.00;90.40;;;;;;5052013;28;20464;-70
2022/06/15 09:15:44;;;;;;;1999.90;999.90;;;24.30;91.00;;;;;;5048233;28;20917;-71
2022/06/15 09:18:19;;;;;;;1999.90;999.90;;;24.40;90.40;;;;;;5049054;28;21027;-69
2022/06/15 09:20:49;;;;;;;1999.90;999.90;;;25.00;90.10;;;;;;5052566;28;20515;-70
2022/06/15 09:23:21;;;;;;;1999.90;999.90;;;24.80;87.90;;;;;;5054799;28;20504;-70
2022/06/15 09:25:53;;;;;;;1999.90;999.90;;;24.60;88.90;;;;;;5055041;28;20439;-70
2022/06/15 09:28:27;;;;;;;1999.90;999.90;;;24.70;88.10;;;;;;5045290;28;20470;-70
2022/06/15 09:30:55;;;;;;;1999.90;999.90;;;25.10;89.30;;;;;;5054948;28;20493;-70
2022/06/15 09:33:28;;;;;;;1999.90;999.90;;;25.00;88.20;;;;;;5054900;28;20503;-69
2022/06/15 09:36:02;;;;;;;1999.90;999.90;;;25.10;87.90;;;;;;5054380;28;21040;-70
2022/06/15 09:38:31;;;;;;;1999.90;999.90;;;25.30;87.70;;;;;;5044603;28;20471;-70
2022/06/15 09:41:03;;;;;;;1999.90;999.90;;;25.50;85.80;;;;;;5053976;28;20469;-70
2022/06/15 09:43:41;;;;;;;1999.90;999.90;;;25.40;85.70;;;;;;5046236;28;20511;-69
2022/06/15 09:46:15;;;;;;;1999.90;999.90;;;25.60;84.60;;;;;;5054147;28;20456;-70
2022/06/15 09:48:53;;;;;;;1999.90;999.90;;;25.30;84.50;;;;;;5042979;28;20494;-68
2022/06/15 09:51:25;;;;;;;1999.90;999.90;;;25.10;84.80;;;;;;5052221;28;20810;-70
2022/06/15 09:54:01;;;;;;;1999.90;999.90;;;25.40;85.10;;;;;;5050883;28;20508;-70
2022/06/15 09:56:28;;;;;;;1999.90;999.90;;;25.70;84.60;;;;;;5052450;28;21074;-69
2022/06/15 09:58:58;;;;;;;1999.90;999.90;;;26.40;84.10;;;;;;5051594;28;20481;-71
2022/06/15 10:01:30;;;;;;;1999.90;999.90;;;26.50;82.70;;;;;;5050599;28;20466;-70
2022/06/15 10:04:00;;;;;;;1999.90;999.90;;;26.40;81.30;;;;;;5047714;28;20458;-70
2022/06/15 10:06:33;;;;;;;1999.90;999.90;;;26.40;81.90;;;;;;5051046;28;21124;-69
2022/06/15 10:09:02;;;;;;;1999.90;999.90;;;26.10;80.50;;;;;;5051878;28;20481;-70
2022/06/15 10:11:36;;;;;;;1999.90;999.90;;;25.90;81.90;;;;;;5051857;28;20876;-70
2022/06/15 10:14:19;;;;;;;1999.90;999.90;;;25.70;81.80;;;;;;5046841;28;20504;-70
2022/06/15 10:16:53;;;;;;;1999.90;999.90;;;25.70;83.20;;;;;;5047500;28;20512;-70
2022/06/15 10:19:23;;;;;;;1999.90;999.90;;;25.90;81.20;;;;;;5046652;28;20485;-70
2022/06/15 10:21:54;;;;;;;1999.90;999.90;;;26.10;81.50;;;;;;5048058;28;20513;-69
2022/06/15 10:24:24;;;;;;;1999.90;999.90;;;26.30;81.00;;;;;;5048380;28;21016;-70
2022/06/15 10:27:13;;;;;;;1999.90;999.90;;;26.20;80.10;;;;;;5048167;28;20454;-70
2022/06/15 10:29:39;;;;;;;1999.90;999.90;;;26.50;80.60;;;;;;5048013;28;20892;-70
2022/06/15 10:32:18;;;;;;;1999.90;999.90;;;26.60;78.60;;;;;;5049268;28;20918;-70
2022/06/15 10:34:56;;;;;;;1999.90;999.90;;;26.80;79.00;;;;;;5048886;28;20901;-70
2022/06/15 10:37:29;;;;;;;1999.90;999.90;;;26.90;78.30;;;;;;5042624;28;20989;-70
2022/06/15 10:40:00;;;;;;;1999.90;999.90;;;26.90;77.80;;;;;;5049587;28;20566;-69
2022/06/15 10:42:33;;;;;;;1999.90;999.90;;;26.70;78.00;;;;;;5049041;28;20466;-69
2022/06/15 10:45:02;;;;;;;1999.90;999.90;;;26.60;79.40;;;;;;5050358;28;20455;-70
2022/06/15 10:47:35;;;;;;;1999.90;999.90;;;26.50;79.60;;;;;;5046812;28;20462;-67
2022/06/15 10:50:08;;;;;;;1999.90;999.90;;;26.60;78.60;;;;;;5047895;28;20536;-70
2022/06/15 10:52:38;;;;;;;1999.90;999.90;;;26.70;77.30;;;;;;5047395;28;20454;-70
2022/06/15 11:04:09;;;;;;;1999.90;999.90;;;27.40;76.40;;;;;;5038282;28;20450;-69
2022/06/15 11:06:40;;;;;;;1999.90;999.90;;;27.10;76.40;;;;;;5046728;28;20453;-70
2022/06/15 11:09:28;;;;;;;1999.90;999.90;;;27.50;76.40;;;;;;5047478;28;20922;-70
2022/06/15 11:11:56;;;;;;;1999.90;999.90;;;27.50;74.40;;;;;;5044844;28;20459;-70
2022/06/15 11:14:27;;;;;;;1999.90;999.90;;;27.30;74.40;;;;;;5047713;28;20458;-70
2022/06/15 11:19:56;;;;;;;1999.90;999.90;;;27.10;75.70;;;;;;5047372;28;20493;-70
2022/06/15 11:22:26;;;;;;;1999.90;999.90;;;27.00;76.50;;;;;;5047636;28;20459;-70
2022/06/15 11:25:00;;;;;;;1999.90;999.90;;;26.90;76.00;;;;;;5046962;28;20515;-70
2022/06/15 11:27:30;;;;;;;1999.90;999.90;;;26.40;75.90;;;;;;5047443;28;20454;-70
2022/06/15 11:29:59;;;;;;;1999.90;999.90;;;26.60;77.20;;;;;;5046965;28;20505;-70
2022/06/15 11:32:38;;;;;;;1999.90;999.90;;;27.00;76.10;;;;;;5047459;28;20516;-70
2022/06/15 11:35:18;;;;;;;1999.90;999.90;;;27.00;75.80;;;;;;5047660;28;20954;-70
2022/06/15 11:37:51;;;;;;;1999.90;999.90;;;27.10;76.20;;;;;;5044545;28;20992;-70
2022/06/15 11:40:25;;;;;;;1999.90;999.90;;;27.30;75.80;;;;;;5042604;28;20486;-70
2022/06/15 11:42:53;;;;;;;1999.90;999.90;;;27.20;75.30;;;;;;5048049;28;20508;-70
2022/06/15 11:45:23;;;;;;;1999.90;999.90;;;27.40;74.50;;;;;;5043879;28;20472;-70
2022/06/15 11:48:03;;;;;;;1999.90;999.90;;;27.90;75.60;;;;;;5046281;28;20466;-70
2022/06/15 11:50:38;;;;;;;1999.90;999.90;;;27.80;74.00;;;;;;5048043;28;20516;-70
2022/06/15 11:53:17;;;;;;;1999.90;999.90;;;28.40;74.70;;;;;;5047582;28;20453;-70
2022/06/15 11:55:48;;;;;;;1999.90;999.90;;;28.00;71.70;;;;;;5045590;28;20470;-70
2022/06/15 11:58:42;;;;;;;1999.90;999.90;;;27.60;74.10;;;;;;5046409;28;20454;-70
2022/06/15 12:01:19;;;;;;;1999.90;999.90;;;27.40;74.90;;;;;;5048791;28;20454;-70
2022/06/15 12:04:14;;;;;;;1999.90;999.90;;;27.40;74.70;;;;;;5044431;28;20457;-70
2022/06/15 12:06:51;;;;;;;1999.90;999.90;;;27.70;74.90;;;;;;5044472;28;20454;-71
2022/06/15 12:09:29;;;;;;;1999.90;999.90;;;28.10;72.90;;;;;;5048903;28;20490;-69
2022/06/15 12:14:53;;;;;;;1999.90;999.90;;;28.10;72.70;;;;;;5044616;28;20430;-70
2022/06/15 12:17:27;;;;;;;1999.90;999.90;;;28.10;72.70;;;;;;5051158;28;20477;-70
2022/06/15 12:19:59;;;;;;;1999.90;999.90;;;27.80;72.40;;;;;;5051357;28;20524;-70
2022/06/15 12:22:31;;;;;;;1999.90;999.90;;;27.60;71.80;;;;;;5048671;28;20508;-70
2022/06/15 12:25:06;;;;;;;1999.90;999.90;;;27.30;73.00;;;;;;5046089;28;20446;-71
2022/06/15 12:27:41;;;;;;;1999.90;999.90;;;27.70;72.20;;;;;;5051109;28;20512;-70
2022/06/15 12:30:26;;;;;;;1999.90;999.90;;;27.70;72.10;;;;;;5051872;28;20462;-70
2022/06/15 12:33:04;;;;;;;1999.90;999.90;;;27.90;72.00;;;;;;5044336;28;21133;-70
2022/06/15 12:35:38;;;;;;;1999.90;999.90;;;28.00;72.00;;;;;;5047818;28;20523;-70
2022/06/15 12:38:14;;;;;;;1999.90;999.90;;;28.10;71.00;;;;;;5043144;28;20497;-70
2022/06/15 12:40:45;;;;;;;1999.90;999.90;;;28.10;70.50;;;;;;5052211;28;20581;-70
2022/06/15 12:43:29;;;;;;;1999.90;999.90;;;28.10;70.30;;;;;;5049768;28;20516;-68
2022/06/15 12:46:05;;;;;;;1999.90;999.90;;;28.00;71.60;;;;;;5051681;28;21015;-70
2022/06/15 12:48:41;;;;;;;1999.90;999.90;;;28.20;70.70;;;;;;5050950;28;20470;-71
2022/06/15 12:51:12;;;;;;;1999.90;999.90;;;28.30;71.00;;;;;;5059542;22;20500;-67
2022/06/15 12:53:51;;;;;;;1999.90;999.90;;;28.60;71.60;;;;;;5036583;28;20458;-67
2022/06/15 12:56:30;;;;;;;1999.90;999.90;;;28.50;69.70;;;;;;5054076;28;20953;-67
2022/06/15 12:59:05;;;;;;;1999.90;999.90;;;28.50;69.90;;;;;;5054557;28;20949;-67
2022/06/15 13:01:36;;;;;;;1999.90;999.90;;;28.60;69.80;;;;;;5034521;28;20800;-69
2022/06/15 13:04:19;;;;;;;1999.90;999.90;;;28.10;70.20;;;;;;5032607;28;20992;-69
2022/06/15 13:06:46;;;;;;;1999.90;999.90;;;28.30;70.20;;;;;;5014802;28;20448;-69
2022/06/15 13:09:22;;;;;;;1999.90;999.90;;;28.20;70.40;;;;;;5015143;28;20447;-67
2022/06/15 13:12:04;;;;;;;1999.90;999.90;;;28.60;70.30;;;;;;5014701;28;20447;-66
2022/06/15 13:14:35;;;;;;;1999.90;999.90;;;29.00;69.20;;;;;;5033401;28;20935;-67
2022/06/15 13:17:10;;;;;;;1999.90;999.90;;;29.00;68.70;;;;;;5034386;28;20524;-67
2022/06/15 13:19:40;;;;;;;1999.90;999.90;;;28.80;69.70;;;;;;5034483;28;20520;-71
2022/06/15 13:22:11;;;;;;;1999.90;999.90;;;28.80;69.90;;;;;;5031883;28;20451;-66
2022/06/15 13:24:57;;;;;;;1999.90;999.90;;;28.90;69.50;;;;;;5030075;28;20546;-67
2022/06/15 13:27:29;;;;;;;1999.90;999.90;;;28.80;69.80;;;;;;5015225;28;20980;-69
2022/06/15 13:30:22;;;;;;;1999.90;999.90;;;28.60;68.60;;;;;;5016076;28;20484;-69
2022/06/15 13:32:53;;;;;;;1999.90;999.90;;;28.40;69.50;;;;;;5021362;28;20455;-69